Terminal Aerodrome Forecast
Issued by NWS

Home | Current Version | Previous Version | Text Only | Print | Product List | Glossary On
Versions: 1 2 3 4 5 6 7 8 9 10 11 12 13
000
FTUS45 KPSR 300520
TAFIWA
TAF
KIWA 300520Z 3006/3106 VRB05KT P6SM SKC
     FM300900 13006KT P6SM SKC
      TEMPO 3016/3020 18008KT
     FM302000 28008KT P6SM SKC
      AMD LTD TO CLD VIS AND WIND TIL 301300=

USA.gov is the U.S. government's official web portal to all federal, state and local government web resources and services.